Onweer radar blitzortung!


Regen radar rain snow radar


Bezoek onze andere website:

Template documentation
and downloads

And another site



Sneeuw/IJzel/Bevriezing van: 10-12-2017 22:00 tot: 11-12-2017 10:59 waarschuwing voor: Sneeuw/IJzel/Bevriezing niveau: Geel info button
Gladheid ten gevolge van sneeuwresten en/of bevriezing.Kans op gladheid. Alle verkeersdeelnemers kunnen hinder ondervinden. Pas uw rijgedrag aan. Volg weerberichten en waarschuwingen.

METAR rapporten vliegvelden

  
EBBR - Brussels International Airport, Belgium
Afstand tot: W 14km
Gewijzigd: 11-12-2017 03:20
Gedeeltelijk bewolkt
Gedeeltelijk bewolkt  
 Wind vanuit OZO
Wind: OZO 4 km/h
Temperatuur:  0°C
Dauwpunt:  -1°C
Vochtigheid:  93%
Barometer:  984 hPa
Bewolking:  Gedeeltelijk bewolkt
Zicht:  10 km
Bewolking:  Gedeeltelijk bewolkt 671 m
2017/12/11 02:20 EBBR 110220Z 11002KT 9999 SCT022 M00/M01 Q0984 NOSIG
EBBE - Beauvechain (Bevekom), Belgium
Afstand tot: ZZO 17km
Gewijzigd: 11-12-2017 02:55
Grotendeels bewolkt
Grotendeels bewolkt  
 Wind vanuit varieert
Wind: varieert 4 km/h
Temperatuur:  3°C
Dauwpunt:  1°C
Vochtigheid:  87%
Barometer:  983 hPa
Bewolking:  Grotendeels bewolkt
Zicht:  10 km
Bewolking:  Grotendeels bewolkt 335 m
2017/12/11 01:55 EBBE 110155Z AUTO VRB02KT 9999 BKN011/// 03/01 Q0983 GRN
EBDT - Schaffen, Belgium
Afstand tot: ONO 29km
Gewijzigd: 11-12-2017 03:17
Gedeeltelijk bewolkt
Gedeeltelijk bewolkt  
 Wind vanuit varieert
Wind: varieert 4 km/h
Temperatuur:  0°C
Dauwpunt:  -1°C
Vochtigheid:  93%
Barometer:  984 hPa
Bewolking:  Gedeeltelijk bewolkt
Zicht:  4 km
Bewolking:  Gedeeltelijk bewolkt 6401 m
2017/12/11 02:17 EBDT 110217Z AUTO VRB02KT 3900 SCT210/// 00/M01 Q0984 GRN
EBAW - Antwerp/Deurne, Belgium
Afstand tot: NNW 38km
Gewijzigd: 11-12-2017 03:20
Helder
Helder  
 Wind vanuit ZO
Wind: ZO 6 km/h
Temperatuur:  -1°C
Dauwpunt:  -2°C
Vochtigheid:  93%
Barometer:  984 hPa
Bewolking:  Helder
Zicht:  5 km
2017/12/11 02:20 EBAW 110220Z AUTO 13003KT 5000 // NCD M01/M02 Q0984
EBCI - Charleroi/Gosselies, Belgium
Afstand tot: ZZW 51km
Gewijzigd: 11-12-2017 03:20
Licht bewolkt
Licht bewolkt  
 Wind vanuit OZO
Wind: OZO 9 km/h
Temperatuur:  2°C
Voelt als:  -1°C
Dauwpunt:  2°C
Vochtigheid:  100%
Barometer:  983 hPa
Bewolking:  Licht bewolkt
Zicht:  10 km
Bewolking:  Licht bewolkt 396 m
2017/12/11 02:20 EBCI 110220Z 12005KT 9999 FEW013 02/02 Q0983 NOSIG
EBLG - Bierset/Liege, Belgium
Afstand tot: OZO 60km
Gewijzigd: 11-12-2017 03:20
Grotendeels bewolkt
Grotendeels bewolkt  
 Wind vanuit Z
Wind: Z 11 km/h
Temperatuur:  3°C
Voelt als:  0°C
Dauwpunt:  1°C
Vochtigheid:  87%
Barometer:  984 hPa
Bewolking:  Grotendeels bewolkt
Zicht:  10 km
Bewolking:  Grotendeels bewolkt 366 m
2017/12/11 02:20 EBLG 110220Z 17006KT 9999 BKN012 03/01 Q0984 TEMPO BKN008

Script ontwikkeld door  Saratoga-weather.org Aangepast voor de template door  Weerstation Leuven

U vindt ons ook hier:


European Weather Network

AWEKAS

Weather Underground

Apparatuur in gebruik:


Weerstation
Davis VP2+

Weerprogramma
Meteobridge

Weercomputer
Asus WL -330N3G

Webleverancier
Wordpress

Davis VP2+

Meteobridge

Asus WL -330N3G

Wordpress